Time,TemperatureF,DewpointF,PressureIn,WindDirection,WindDirectionDegrees,WindSpeedMPH,WindSpeedGustMPH,Humidity,HourlyPrecipIn,Conditions,Clouds,dailyrainin,SoftwareType,DateUTC
2013-05-02 00:09:00,58.7,56.0,30.27,North,11,5.0,-999.0,91,-99.99,,,0.00,weatherlink.com 1.10,2013-05-02 04:09:00,
2013-05-02 00:25:00,58.5,56.0,30.26,ENE,68,3.0,6.0,92,0.00,,,0.00,weatherlink.com 1.10,2013-05-02 04:25:00,
2013-05-02 00:40:00,58.4,56.0,30.26,East,92,5.0,6.0,92,0.00,,,0.00,weatherlink.com 1.10,2013-05-02 04:40:00,
2013-05-02 00:55:00,58.3,56.0,30.25,NE,49,2.0,7.0,92,0.00,,,0.00,weatherlink.com 1.10,2013-05-02 04:55:00,
2013-05-02 01:10:00,58.2,56.0,30.25,NNE,31,3.0,7.0,92,0.00,,,0.00,weatherlink.com 1.10,2013-05-02 05:10:00,
2013-05-02 01:25:00,58.1,56.0,30.25,NE,50,3.0,9.0,92,0.00,,,0.00,weatherlink.com 1.10,2013-05-02 05:25:00,
2013-05-02 01:40:00,57.8,56.0,30.25,ENE,69,4.0,8.0,93,0.00,,,0.00,weatherlink.com 1.10,2013-05-02 05:40:00,
2013-05-02 01:55:00,57.3,56.0,30.25,ENE,57,1.0,10.0,94,0.00,,,0.00,weatherlink.com 1.10,2013-05-02 05:55:00,
2013-05-02 02:10:00,57.0,56.0,30.24,NNE,32,2.0,9.0,95,0.00,,,0.00,weatherlink.com 1.10,2013-05-02 06:10:00,
2013-05-02 02:25:00,56.7,55.0,30.24,ENE,65,4.0,8.0,95,0.00,,,0.00,weatherlink.com 1.10,2013-05-02 06:25:00,
2013-05-02 02:40:00,56.6,56.0,30.23,NNE,24,1.0,6.0,96,0.00,,,0.00,weatherlink.com 1.10,2013-05-02 06:40:00,
2013-05-02 02:55:00,56.4,55.0,30.23,North,355,3.0,7.0,96,0.00,,,0.00,weatherlink.com 1.10,2013-05-02 06:55:00,
2013-05-02 03:10:00,56.3,56.0,30.23,ENE,59,2.0,6.0,97,0.01,,,0.01,weatherlink.com 1.10,2013-05-02 07:10:00,
2013-05-02 03:25:00,56.3,56.0,30.22,NE,44,1.0,5.0,97,0.01,,,0.01,weatherlink.com 1.10,2013-05-02 07:25:00,
2013-05-02 03:40:00,56.3,56.0,30.22,NE,41,0.0,5.0,97,0.02,,,0.02,weatherlink.com 1.10,2013-05-02 07:40:00,
2013-05-02 03:55:00,56.3,56.0,30.22,ENE,61,1.0,7.0,97,0.02,,,0.02,weatherlink.com 1.10,2013-05-02 07:55:00,
2013-05-02 04:10:00,56.2,55.0,30.22,ENE,71,4.0,7.0,97,0.01,,,0.02,weatherlink.com 1.10,2013-05-02 08:10:00,
2013-05-02 04:25:00,56.2,55.0,30.22,ENE,74,2.0,8.0,97,0.01,,,0.03,weatherlink.com 1.10,2013-05-02 08:25:00,
2013-05-02 04:40:00,56.2,55.0,30.22,North,10,3.0,7.0,97,0.01,,,0.03,weatherlink.com 1.10,2013-05-02 08:40:00,
2013-05-02 04:55:00,56.2,56.0,30.22,North,360,2.0,7.0,98,0.01,,,0.03,weatherlink.com 1.10,2013-05-02 08:55:00,
2013-05-02 05:10:00,56.1,56.0,30.22,NNE,29,2.0,7.0,98,0.04,,,0.06,weatherlink.com 1.10,2013-05-02 09:10:00,
2013-05-02 05:25:00,56.1,56.0,30.21,ESE,112,7.0,8.0,98,0.07,,,0.10,weatherlink.com 1.10,2013-05-02 09:25:00,
2013-05-02 05:40:00,56.1,56.0,30.21,NE,54,2.0,7.0,98,0.07,,,0.10,weatherlink.com 1.10,2013-05-02 09:40:00,
2013-05-02 05:55:00,56.1,56.0,30.21,East,101,3.0,6.0,98,0.07,,,0.10,weatherlink.com 1.10,2013-05-02 09:55:00,
2013-05-02 06:10:00,56.1,56.0,30.21,NE,36,1.0,6.0,98,0.03,,,0.10,weatherlink.com 1.10,2013-05-02 10:10:00,
2013-05-02 06:25:00,56.2,56.0,30.22,East,83,2.0,5.0,98,0.01,,,0.11,weatherlink.com 1.10,2013-05-02 10:25:00,
2013-05-02 06:40:00,56.2,56.0,30.23,ENE,59,3.0,5.0,98,0.01,,,0.11,weatherlink.com 1.10,2013-05-02 10:40:00,
2013-05-02 06:55:00,56.4,56.0,30.23,NNE,30,3.0,9.0,98,0.01,,,0.11,weatherlink.com 1.10,2013-05-02 10:55:00,
2013-05-02 07:10:00,56.5,56.0,30.23,NNE,26,2.0,7.0,98,0.01,,,0.11,weatherlink.com 1.10,2013-05-02 11:10:00,
2013-05-02 07:25:00,56.5,56.0,30.23,ESE,116,5.0,7.0,98,0.00,,,0.11,weatherlink.com 1.10,2013-05-02 11:25:00,
2013-05-02 07:40:00,56.5,56.0,30.24,NNE,24,0.0,7.0,98,0.00,,,0.11,weatherlink.com 1.10,2013-05-02 11:40:00,
2013-05-02 07:55:00,56.6,56.0,30.25,NE,34,2.0,6.0,99,0.00,,,0.11,weatherlink.com 1.10,2013-05-02 11:55:00,
2013-05-02 08:10:00,56.7,56.0,30.25,ENE,62,4.0,5.0,98,0.00,,,0.11,weatherlink.com 1.10,2013-05-02 12:10:00,
2013-05-02 08:25:00,56.9,56.0,30.25,NNE,24,5.0,9.0,98,0.00,,,0.11,weatherlink.com 1.10,2013-05-02 12:25:00,
2013-05-02 08:40:00,57.1,57.0,30.26,NNE,13,4.0,11.0,98,0.00,,,0.11,weatherlink.com 1.10,2013-05-02 12:40:00,
2013-05-02 08:55:00,57.3,57.0,30.26,NE,51,6.0,8.0,98,0.00,,,0.11,weatherlink.com 1.10,2013-05-02 12:55:00,
2013-05-02 09:10:00,57.3,57.0,30.26,SSE,152,2.0,7.0,98,0.00,,,0.11,weatherlink.com 1.10,2013-05-02 13:10:00,
2013-05-02 09:25:00,57.6,57.0,30.26,NE,50,3.0,9.0,98,0.00,,,0.11,weatherlink.com 1.10,2013-05-02 13:25:00,
2013-05-02 09:40:00,57.6,57.0,30.26,East,101,2.0,8.0,97,0.00,,,0.11,weatherlink.com 1.10,2013-05-02 13:40:00,
2013-05-02 09:55:00,57.8,57.0,30.26,ENE,57,1.0,10.0,97,0.00,,,0.11,weatherlink.com 1.10,2013-05-02 13:55:00,
2013-05-02 10:10:00,57.1,56.0,30.26,NNE,28,1.0,8.0,96,0.00,,,0.11,weatherlink.com 1.10,2013-05-02 14:10:00,
2013-05-02 10:25:00,56.6,56.0,30.27,NE,35,3.0,6.0,97,0.00,,,0.11,weatherlink.com 1.10,2013-05-02 14:25:00,
2013-05-02 10:40:00,56.1,55.0,30.27,NNE,26,2.0,8.0,97,0.00,,,0.11,weatherlink.com 1.10,2013-05-02 14:40:00,
2013-05-02 10:56:00,55.9,55.0,30.27,NE,40,6.0,7.0,98,0.00,,,0.11,weatherlink.com 1.10,2013-05-02 14:56:00,
2013-05-02 11:11:00,56.0,56.0,30.28,North,360,2.0,10.0,98,0.00,,,0.11,weatherlink.com 1.10,2013-05-02 15:11:00,
2013-05-02 11:26:00,56.0,55.0,30.28,NE,46,7.0,12.0,97,0.00,,,0.11,weatherlink.com 1.10,2013-05-02 15:26:00,
2013-05-02 11:41:00,56.1,56.0,30.28,NE,48,2.0,9.0,98,0.00,,,0.11,weatherlink.com 1.10,2013-05-02 15:41:00,
2013-05-02 11:57:00,56.8,56.0,30.28,NNE,15,6.0,8.0,98,0.01,,,0.12,weatherlink.com 1.10,2013-05-02 15:57:00,
2013-05-02 12:11:00,57.3,56.0,30.28,ENE,59,2.0,10.0,96,0.01,,,0.12,weatherlink.com 1.10,2013-05-02 16:11:00,
2013-05-02 12:26:00,57.9,57.0,30.28,East,96,3.0,10.0,95,0.01,,,0.12,weatherlink.com 1.10,2013-05-02 16:26:00,
2013-05-02 12:41:00,58.5,57.0,30.27,East,80,5.0,9.0,94,0.01,,,0.12,weatherlink.com 1.10,2013-05-02 16:41:00,
2013-05-02 12:56:00,58.9,57.0,30.28,East,92,2.0,10.0,93,0.00,,,0.12,weatherlink.com 1.10,2013-05-02 16:56:00,
2013-05-02 13:11:00,59.0,57.0,30.27,NE,34,5.0,9.0,92,0.00,,,0.12,weatherlink.com 1.10,2013-05-02 17:11:00,
2013-05-02 13:26:00,58.7,56.0,30.27,NE,39,1.0,8.0,92,0.00,,,0.12,weatherlink.com 1.10,2013-05-02 17:26:00,
2013-05-02 13:41:00,59.2,57.0,30.28,NE,42,3.0,7.0,92,0.00,,,0.12,weatherlink.com 1.10,2013-05-02 17:41:00,
2013-05-02 13:56:00,59.7,57.0,30.27,ENE,74,2.0,6.0,92,0.00,,,0.12,weatherlink.com 1.10,2013-05-02 17:56:00,
2013-05-02 14:11:00,60.2,57.0,30.27,NE,56,3.0,8.0,90,0.00,,,0.12,weatherlink.com 1.10,2013-05-02 18:11:00,
2013-05-02 14:26:00,60.4,58.0,30.27,ENE,75,4.0,8.0,90,0.00,,,0.12,weatherlink.com 1.10,2013-05-02 18:26:00,
2013-05-02 14:41:00,60.7,58.0,30.27,NE,56,1.0,8.0,89,0.00,,,0.12,weatherlink.com 1.10,2013-05-02 18:41:00,
2013-05-02 14:56:00,60.8,58.0,30.26,NNE,33,4.0,7.0,89,0.00,,,0.12,weatherlink.com 1.10,2013-05-02 18:56:00,
2013-05-02 15:11:00,60.8,57.0,30.26,East,98,2.0,8.0,88,0.00,,,0.12,weatherlink.com 1.10,2013-05-02 19:11:00,
2013-05-02 15:26:00,61.1,58.0,30.25,ENE,78,4.0,9.0,89,0.00,,,0.12,weatherlink.com 1.10,2013-05-02 19:26:00,
2013-05-02 15:41:00,61.9,58.0,30.25,ESE,121,4.0,9.0,86,0.00,,,0.12,weatherlink.com 1.10,2013-05-02 19:41:00,
2013-05-02 15:56:00,62.0,58.0,30.24,ENE,71,1.0,6.0,87,0.00,,,0.12,weatherlink.com 1.10,2013-05-02 19:56:00,
2013-05-02 16:11:00,61.8,58.0,30.24,NNE,29,2.0,9.0,86,0.00,,,0.12,weatherlink.com 1.10,2013-05-02 20:11:00,
2013-05-02 16:26:00,61.9,58.0,30.24,NE,40,1.0,9.0,86,0.00,,,0.12,weatherlink.com 1.10,2013-05-02 20:26:00,
2013-05-02 16:41:00,61.8,58.0,30.24,NNE,15,8.0,8.0,86,0.00,,,0.12,weatherlink.com 1.10,2013-05-02 20:41:00,
2013-05-02 16:56:00,61.6,57.0,30.23,NE,49,4.0,5.0,86,0.00,,,0.12,weatherlink.com 1.10,2013-05-02 20:56:00,
2013-05-02 17:11:00,61.1,58.0,30.23,ENE,71,3.0,8.0,88,0.00,,,0.12,weatherlink.com 1.10,2013-05-02 21:11:00,
2013-05-02 17:26:00,60.9,57.0,30.23,ENE,61,1.0,6.0,87,0.00,,,0.12,weatherlink.com 1.10,2013-05-02 21:26:00,
2013-05-02 17:41:00,60.9,57.0,30.23,SSW,196,2.0,5.0,87,0.00,,,0.12,weatherlink.com 1.10,2013-05-02 21:41:00,
2013-05-02 17:56:00,60.7,57.0,30.22,NNE,31,3.0,8.0,88,0.00,,,0.12,weatherlink.com 1.10,2013-05-02 21:56:00,
2013-05-02 18:11:00,60.5,57.0,30.22,ESE,117,4.0,4.0,89,0.00,,,0.12,weatherlink.com 1.10,2013-05-02 22:11:00,
2013-05-02 18:26:00,60.4,57.0,30.22,East,97,7.0,8.0,89,0.00,,,0.12,weatherlink.com 1.10,2013-05-02 22:26:00,
2013-05-02 18:41:00,60.2,57.0,30.22,NE,53,4.0,7.0,89,0.00,,,0.12,weatherlink.com 1.10,2013-05-02 22:41:00,
2013-05-02 18:56:00,60.1,57.0,30.21,North,355,2.0,10.0,89,0.00,,,0.12,weatherlink.com 1.10,2013-05-02 22:56:00,
2013-05-02 19:11:00,59.9,57.0,30.21,NNE,31,1.0,9.0,90,0.00,,,0.12,weatherlink.com 1.10,2013-05-02 23:11:00,
2013-05-02 19:26:00,59.7,57.0,30.21,NNE,19,5.0,7.0,90,0.00,,,0.12,weatherlink.com 1.10,2013-05-02 23:26:00,
2013-05-02 19:41:00,59.6,57.0,30.21,NNE,19,3.0,6.0,91,0.00,,,0.12,weatherlink.com 1.10,2013-05-02 23:41:00,
2013-05-02 19:56:00,59.4,57.0,30.21,North,9,2.0,7.0,91,0.00,,,0.12,weatherlink.com 1.10,2013-05-02 23:56:00,
2013-05-02 20:11:00,59.1,57.0,30.21,NE,46,4.0,9.0,91,0.00,,,0.12,weatherlink.com 1.10,2013-05-03 00:11:00,
2013-05-02 20:27:00,58.7,56.0,30.22,NNE,31,0.0,5.0,92,0.00,,,0.12,weatherlink.com 1.10,2013-05-03 00:27:00,
2013-05-02 20:43:00,58.3,56.0,30.22,ENE,63,1.0,5.0,92,0.00,,,0.12,weatherlink.com 1.10,2013-05-03 00:43:00,
2013-05-02 20:57:00,58.4,56.0,30.22,East,87,2.0,6.0,92,0.00,,,0.12,weatherlink.com 1.10,2013-05-03 00:57:00,
2013-05-02 21:12:00,58.5,56.0,30.22,NE,49,2.0,6.0,92,0.00,,,0.12,weatherlink.com 1.10,2013-05-03 01:12:00,
2013-05-02 21:27:00,58.6,56.0,30.22,NNE,32,2.0,7.0,92,0.00,,,0.12,weatherlink.com 1.10,2013-05-03 01:27:00,
2013-05-02 21:42:00,58.7,56.0,30.23,ENE,67,1.0,7.0,91,0.00,,,0.12,weatherlink.com 1.10,2013-05-03 01:42:00,
2013-05-02 21:57:00,58.8,56.0,30.23,East,83,2.0,9.0,91,0.00,,,0.12,weatherlink.com 1.10,2013-05-03 01:57:00,
2013-05-02 22:12:00,58.8,56.0,30.23,NE,46,2.0,6.0,91,0.00,,,0.12,weatherlink.com 1.10,2013-05-03 02:12:00,
2013-05-02 22:27:00,58.8,56.0,30.23,East,83,1.0,6.0,91,0.00,,,0.12,weatherlink.com 1.10,2013-05-03 02:27:00,
2013-05-02 22:42:00,58.8,56.0,30.23,ENE,71,1.0,6.0,91,0.00,,,0.12,weatherlink.com 1.10,2013-05-03 02:42:00,
2013-05-02 22:57:00,58.7,56.0,30.23,ESE,108,4.0,9.0,91,0.00,,,0.12,weatherlink.com 1.10,2013-05-03 02:57:00,
2013-05-02 23:12:00,58.5,57.0,30.23,NE,50,2.0,10.0,93,0.00,,,0.12,weatherlink.com 1.10,2013-05-03 03:12:00,
2013-05-02 23:27:00,58.2,57.0,30.22,ENE,62,3.0,8.0,94,0.00,,,0.12,weatherlink.com 1.10,2013-05-03 03:27:00,
2013-05-02 23:42:00,57.8,56.0,30.22,NNE,23,4.0,7.0,95,0.00,,,0.12,weatherlink.com 1.10,2013-05-03 03:42:00,
2013-05-02 23:57:00,57.6,56.0,30.22,NE,47,1.0,9.0,95,0.00,,,0.12,weatherlink.com 1.10,2013-05-03 03:57:00,